Time;durP1;ratioP1;P1;durP2;ratioP2;P2;SDS_P1;SDS_P2;PMS_P1;PMS_P2;Temp;Humidity;BMP_temperature;BMP_pressure;BME280_temperature;BME280_humidity;BME280_pressure;Samples;Min_cycle;Max_cycle;Signal;HPM_P1;HPM_P2
2022/08/05 00:06:23;;;;;;;4.50;3.00;;;25.00;59.70;;;;;;20962526;28;20251;-72
2022/08/05 00:16:33;;;;;;;10.33;3.43;;;24.90;59.90;;;;;;20972909;28;20214;-72
2022/08/05 00:26:37;;;;;;;20.00;4.80;;;24.80;60.00;;;;;;21058165;28;20282;-72
2022/08/05 00:36:47;;;;;;;6.67;3.30;;;24.70;60.20;;;;;;21085658;28;20214;-72
2022/08/05 00:47:08;;;;;;;6.27;3.20;;;24.50;60.80;;;;;;21068613;28;20292;-72
2022/08/05 00:57:30;;;;;;;11.40;3.60;;;24.40;61.20;;;;;;21086760;28;20194;-71
2022/08/05 01:07:52;;;;;;;3.60;3.30;;;24.40;61.60;;;;;;21086865;28;20226;-72
2022/08/05 01:18:22;;;;;;;8.13;3.80;;;24.50;62.00;;;;;;21017549;28;20203;-72
2022/08/05 01:28:50;;;;;;;7.03;3.07;;;24.50;61.90;;;;;;21000872;28;20611;-72
2022/08/05 01:38:53;;;;;;;9.40;3.77;;;24.50;62.60;;;;;;21011932;28;20586;-72
2022/08/05 01:48:57;;;;;;;3.20;2.90;;;24.60;60.90;;;;;;21018140;28;20604;-73
2022/08/05 01:59:07;;;;;;;4.23;2.70;;;24.70;60.20;;;;;;21012554;28;20199;-71
2022/08/05 02:09:09;;;;;;;9.27;3.03;;;24.70;60.50;;;;;;21008299;28;20230;-71
2022/08/05 02:19:36;;;;;;;9.97;2.67;;;24.80;61.20;;;;;;21004729;28;20595;-71
2022/08/05 02:29:50;;;;;;;12.27;3.50;;;25.10;62.50;;;;;;21004713;28;20698;-72
2022/08/05 02:40:02;;;;;;;9.37;3.10;;;25.30;65.60;;;;;;21006018;28;20566;-70
2022/08/05 02:50:06;;;;;;;10.60;3.60;;;25.40;67.80;;;;;;21014341;28;20330;-71
2022/08/05 03:00:12;;;;;;;8.20;3.73;;;25.50;68.60;;;;;;21024215;28;20235;-71
2022/08/05 03:10:15;;;;;;;13.47;3.43;;;25.50;69.30;;;;;;21022483;28;20688;-72
2022/08/05 03:20:25;;;;;;;8.80;3.40;;;25.50;69.90;;;;;;21005280;28;20210;-72
2022/08/05 03:30:31;;;;;;;7.60;3.00;;;25.50;70.10;;;;;;21002376;28;20270;-71
2022/08/05 03:40:39;;;;;;;12.60;3.13;;;25.60;70.40;;;;;;21001779;28;20207;-71
2022/08/05 03:50:49;;;;;;;8.37;3.53;;;25.60;70.50;;;;;;21000373;28;20247;-71
2022/08/05 04:00:52;;;;;;;7.60;2.93;;;25.60;70.60;;;;;;21000398;28;20214;-71
2022/08/05 04:10:55;;;;;;;6.40;3.13;;;25.60;70.90;;;;;;20999750;28;20237;-70
2022/08/05 04:20:57;;;;;;;8.17;3.40;;;25.70;71.20;;;;;;20975862;28;20208;-71
2022/08/05 04:31:01;;;;;;;9.33;3.53;;;25.60;71.50;;;;;;20915219;28;20638;-72
2022/08/05 04:41:08;;;;;;;13.37;3.30;;;25.50;72.60;;;;;;20927976;28;20207;-70
2022/08/05 04:51:11;;;;;;;13.07;3.93;;;25.40;74.00;;;;;;20929932;28;20239;-71
2022/08/05 05:01:14;;;;;;;8.10;3.83;;;25.40;74.00;;;;;;20913676;28;20211;-72
2022/08/05 05:11:34;;;;;;;12.73;3.70;;;25.60;73.60;;;;;;20913475;28;20250;-72
2022/08/05 05:21:54;;;;;;;22.20;3.27;;;25.70;73.50;;;;;;20898000;28;20344;-70
2022/08/05 05:31:56;;;;;;;10.70;3.27;;;25.80;72.50;;;;;;20913081;28;20220;-72
2022/08/05 05:41:58;;;;;;;5.60;2.90;;;25.70;69.30;;;;;;20915530;28;20663;-72
2022/08/05 05:52:00;;;;;;;8.23;3.10;;;25.80;69.30;;;;;;20911434;28;20246;-72
2022/08/05 06:02:07;;;;;;;6.77;3.60;;;25.80;69.00;;;;;;20910832;28;20262;-71
2022/08/05 06:12:10;;;;;;;5.37;2.97;;;25.80;69.00;;;;;;20911289;28;20204;-71
2022/08/05 06:22:25;;;;;;;6.27;2.80;;;25.80;69.00;;;;;;20928065;28;20571;-72
2022/08/05 06:32:27;;;;;;;13.33;2.90;;;25.80;69.40;;;;;;20922428;28;20200;-71
2022/08/05 06:42:29;;;;;;;3.87;2.70;;;25.70;70.00;;;;;;20923807;28;20239;-71
2022/08/05 06:52:31;;;;;;;3.80;2.80;;;25.80;70.30;;;;;;20952910;28;20231;-72
2022/08/05 07:02:42;;;;;;;6.00;2.60;;;26.10;70.20;;;;;;20905429;28;20244;-72
2022/08/05 07:23:10;;;;;;;3.70;2.60;;;26.30;69.90;;;;;;20975256;28;20323;-70
2022/08/05 07:33:26;;;;;;;5.00;2.50;;;26.40;69.60;;;;;;21001858;28;20218;-70
2022/08/05 07:43:37;;;;;;;4.30;2.80;;;26.60;69.20;;;;;;20983570;28;20231;-70
2022/08/05 07:53:39;;;;;;;5.67;3.00;;;26.80;68.80;;;;;;20948490;28;20243;-70
2022/08/05 08:03:51;;;;;;;3.40;2.67;;;27.00;68.10;;;;;;20965385;28;20233;-71
2022/08/05 08:13:53;;;;;;;6.97;4.80;;;26.70;68.00;;;;;;21005414;28;20270;-74
2022/08/05 08:24:01;;;;;;;6.03;3.33;;;26.90;67.80;;;;;;21042695;28;20239;-71
2022/08/05 08:34:06;;;;;;;4.03;2.63;;;27.00;67.30;;;;;;21060556;28;20215;-70
2022/08/05 08:44:11;;;;;;;7.23;2.77;;;27.00;66.40;;;;;;21019487;28;20227;-68
2022/08/05 08:54:34;;;;;;;3.40;2.37;;;27.00;65.80;;;;;;20969822;28;20262;-72
2022/08/05 09:04:37;;;;;;;4.87;2.20;;;27.30;64.30;;;;;;20954927;28;20517;-71
2022/08/05 09:15:04;;;;;;;4.43;2.43;;;27.70;61.60;;;;;;20911804;28;20211;-71
2022/08/05 09:25:07;;;;;;;3.30;2.57;;;27.60;60.40;;;;;;20919944;28;20257;-70
2022/08/05 09:35:15;;;;;;;3.03;2.30;;;27.90;60.10;;;;;;20995734;28;20725;-68
2022/08/05 09:45:39;;;;;;;3.67;2.47;;;28.10;59.20;;;;;;20960058;28;20718;-66
2022/08/05 09:56:01;;;;;;;5.18;3.08;;;28.30;58.70;;;;;;20926989;28;20258;-67
2022/08/05 10:06:08;;;;;;;4.20;3.20;;;28.60;58.00;;;;;;20926700;28;20253;-70
2022/08/05 10:16:31;;;;;;;3.92;2.90;;;28.70;57.70;;;;;;20924494;28;20211;-69
2022/08/05 10:26:35;;;;;;;3.67;2.78;;;28.60;57.20;;;;;;20938669;28;20231;-71
2022/08/05 10:36:50;;;;;;;2.97;2.50;;;28.70;56.70;;;;;;21003259;28;20655;-70
2022/08/05 10:46:54;;;;;;;3.35;2.33;;;28.80;56.40;;;;;;21001839;28;20238;-73
2022/08/05 10:56:57;;;;;;;2.95;2.10;;;29.10;54.60;;;;;;21003285;28;20208;-70
2022/08/05 11:06:59;;;;;;;3.97;2.30;;;29.00;52.70;;;;;;21000808;28;20242;-74
2022/08/05 11:17:36;;;;;;;4.22;2.70;;;29.10;52.80;;;;;;21001133;28;20249;-76
2022/08/05 11:28:10;;;;;;;3.30;2.25;;;29.40;54.10;;;;;;20952597;28;20246;-77
2022/08/05 11:38:17;;;;;;;6.50;2.35;;;29.50;53.10;;;;;;21005697;28;20204;-78
2022/08/05 11:48:41;;;;;;;6.97;1.98;;;29.70;53.50;;;;;;20939073;28;20322;-73
2022/08/05 11:58:44;;;;;;;1.67;1.58;;;29.70;51.80;;;;;;20939887;28;20239;-78
2022/08/05 12:08:56;;;;;;;2.63;1.90;;;29.80;49.40;;;;;;20930955;28;20235;-77
2022/08/05 12:18:59;;;;;;;3.40;2.08;;;29.70;48.90;;;;;;20996569;28;20290;-79
2022/08/05 12:29:07;;;;;;;8.02;2.22;;;29.80;49.40;;;;;;20996162;28;20318;-67
2022/08/05 12:39:17;;;;;;;5.63;1.92;;;29.60;49.90;;;;;;20981677;28;20622;-75
2022/08/05 12:49:20;;;;;;;3.03;2.10;;;29.60;50.40;;;;;;20994067;28;20246;-68
2022/08/05 12:59:30;;;;;;;12.02;2.65;;;29.60;50.80;;;;;;20911865;28;20294;-72
2022/08/05 13:09:59;;;;;;;2.45;2.20;;;29.70;51.30;;;;;;20911866;28;20271;-77
2022/08/05 13:20:05;;;;;;;5.05;2.72;;;29.80;52.10;;;;;;20911116;28;20203;-77
2022/08/05 13:30:11;;;;;;;33.10;3.50;;;29.70;52.70;;;;;;20960202;28;20235;-78
2022/08/05 13:40:32;;;;;;;4.30;2.08;;;29.90;52.90;;;;;;20977688;28;20203;-68
2022/08/05 13:50:52;;;;;;;2.97;2.60;;;29.70;53.30;;;;;;21004989;28;20235;-74
2022/08/05 14:00:55;;;;;;;3.53;2.22;;;29.40;54.70;;;;;;20946793;28;20204;-71
2022/08/05 14:10:57;;;;;;;6.40;2.35;;;29.40;55.00;;;;;;20925621;28;20597;-75
2022/08/05 14:21:18;;;;;;;3.10;2.42;;;29.40;54.20;;;;;;20966066;28;20288;-75
2022/08/05 14:31:40;;;;;;;3.28;2.35;;;29.00;54.40;;;;;;21005935;28;20243;-73
2022/08/05 14:53:24;;;;;;;9.10;3.50;;;28.20;56.90;;;;;;21005861;28;20223;-77
2022/08/05 15:03:30;;;;;;;3.67;2.93;;;28.00;58.10;;;;;;20965593;28;20235;-74
2022/08/05 15:13:39;;;;;;;5.10;3.23;;;28.00;58.80;;;;;;20935127;28;20205;-71
2022/08/05 15:23:50;;;;;;;4.57;2.70;;;27.90;59.40;;;;;;21007757;28;20308;-75
2022/08/05 15:33:52;;;;;;;8.30;3.30;;;27.80;60.00;;;;;;20993722;28;20212;-74
2022/08/05 15:44:13;;;;;;;7.70;4.30;;;27.80;60.50;;;;;;21000718;28;20253;-75
2022/08/05 15:54:16;;;;;;;6.90;4.10;;;27.90;60.80;;;;;;21000115;28;20250;-73
2022/08/05 16:04:18;;;;;;;5.53;3.07;;;28.00;60.90;;;;;;20999251;28;20767;-78
2022/08/05 16:14:20;;;;;;;7.17;4.10;;;28.00;60.90;;;;;;20998828;28;20277;-75
2022/08/05 16:24:22;;;;;;;4.20;3.80;;;28.20;61.30;;;;;;20997983;28;20292;-74
2022/08/05 16:34:44;;;;;;;5.18;4.70;;;28.10;61.90;;;;;;20998412;28;20647;-67
2022/08/05 16:44:51;;;;;;;8.90;7.03;;;28.10;62.80;;;;;;20996623;28;20234;-68
2022/08/05 16:54:57;;;;;;;8.67;4.70;;;27.90;63.20;;;;;;20914152;28;20212;-69
2022/08/05 17:04:59;;;;;;;5.57;4.20;;;27.60;64.00;;;;;;20912294;28;20243;-74
2022/08/05 17:15:00;;;;;;;5.93;4.73;;;27.20;63.50;;;;;;20911944;28;20659;-70
2022/08/05 17:25:04;;;;;;;6.30;4.90;;;26.90;63.70;;;;;;20912112;28;20707;-70
2022/08/05 17:35:25;;;;;;;6.37;5.70;;;26.80;64.00;;;;;;20826248;28;20208;-69
2022/08/05 17:45:33;;;;;;;8.93;5.10;;;26.70;64.40;;;;;;20825073;28;20640;-70
2022/08/05 17:55:39;;;;;;;8.60;5.30;;;26.60;65.60;;;;;;20826185;28;20204;-70
2022/08/05 18:05:42;;;;;;;5.03;4.53;;;26.30;67.10;;;;;;20826847;28;20228;-70
2022/08/05 18:15:54;;;;;;;5.97;4.70;;;25.90;68.50;;;;;;20884055;28;20691;-71
2022/08/05 18:25:56;;;;;;;5.63;4.53;;;25.40;69.70;;;;;;20909198;28;20231;-70
2022/08/05 18:36:00;;;;;;;17.70;13.33;;;25.00;70.60;;;;;;20840146;28;20200;-72
2022/08/05 18:46:07;;;;;;;7.37;4.40;;;24.60;70.50;;;;;;20869998;28;20329;-71
2022/08/05 18:56:12;;;;;;;5.57;3.53;;;24.40;70.70;;;;;;21000434;28;20249;-72
2022/08/05 19:06:14;;;;;;;6.87;3.53;;;24.20;70.90;;;;;;20962479;28;20231;-72
2022/08/05 19:16:22;;;;;;;5.60;3.50;;;24.10;71.20;;;;;;20997284;28;20200;-69
2022/08/05 19:26:34;;;;;;;6.00;3.50;;;23.90;71.70;;;;;;20917846;28;20595;-70
2022/08/05 19:36:54;;;;;;;5.07;2.87;;;23.70;75.30;;;;;;20917451;28;20211;-72
2022/08/05 19:46:58;;;;;;;10.20;2.93;;;23.40;77.20;;;;;;20916841;28;20240;-72
2022/08/05 19:57:02;;;;;;;3.40;2.23;;;23.00;77.60;;;;;;20955443;28;20204;-70
2022/08/05 20:07:10;;;;;;;2.73;2.30;;;22.90;77.30;;;;;;20998823;28;20590;-72
2022/08/05 20:17:14;;;;;;;5.47;2.30;;;22.70;75.90;;;;;;20997188;28;20213;-72
2022/08/05 20:27:16;;;;;;;5.93;2.37;;;22.70;74.90;;;;;;20996225;28;20231;-73
2022/08/05 20:37:21;;;;;;;4.13;2.07;;;22.70;73.40;;;;;;20997008;28;20200;-71
2022/08/05 20:47:43;;;;;;;5.03;1.80;;;22.60;73.30;;;;;;20994189;28;20261;-71
2022/08/05 20:57:47;;;;;;;4.43;1.87;;;22.50;72.40;;;;;;20995106;28;20701;-72
2022/08/05 21:07:49;;;;;;;5.00;1.70;;;22.50;71.90;;;;;;20993756;28;20322;-72
2022/08/05 21:17:53;;;;;;;2.33;1.70;;;22.40;70.60;;;;;;21031539;28;20226;-72
2022/08/05 21:27:54;;;;;;;7.37;3.03;;;22.50;69.80;;;;;;21076992;28;20238;-72
2022/08/05 21:37:57;;;;;;;2.60;1.60;;;22.50;68.80;;;;;;21077129;28;20255;-72
2022/08/05 21:47:59;;;;;;;4.87;1.50;;;22.40;68.10;;;;;;21084537;28;20634;-71
2022/08/05 21:58:01;;;;;;;2.17;1.30;;;22.30;67.70;;;;;;21044079;28;20651;-72
2022/08/05 22:08:04;;;;;;;3.10;1.50;;;22.30;66.60;;;;;;21008095;28;20235;-70
2022/08/05 22:18:22;;;;;;;2.73;1.40;;;22.20;65.90;;;;;;21006115;28;20669;-72
2022/08/05 22:28:26;;;;;;;3.43;1.67;;;22.00;65.60;;;;;;21006199;28;20234;-72
2022/08/05 22:38:28;;;;;;;2.10;1.60;;;22.00;65.20;;;;;;21007590;28;20697;-72
2022/08/05 22:48:29;;;;;;;1.53;1.40;;;21.90;64.70;;;;;;21006206;28;20239;-72
2022/08/05 22:58:32;;;;;;;3.93;1.70;;;21.80;64.70;;;;;;21004774;28;20230;-71
2022/08/05 23:08:36;;;;;;;3.53;1.40;;;21.70;64.40;;;;;;21005141;28;20242;-72
2022/08/05 23:18:39;;;;;;;4.77;1.70;;;21.70;64.50;;;;;;21004182;28;20667;-73
2022/08/05 23:28:43;;;;;;;2.63;1.60;;;21.50;65.30;;;;;;21003231;28;20279;-72
2022/08/05 23:38:44;;;;;;;1.90;1.40;;;21.40;64.70;;;;;;21002769;28;20208;-72
2022/08/05 23:48:47;;;;;;;2.40;1.70;;;21.30;64.70;;;;;;21001810;28;20325;-72
2022/08/05 23:59:02;;;;;;;2.90;1.60;;;21.20;64.90;;;;;;21000943;28;20206;-72
